Time;durP1;ratioP1;P1;durP2;ratioP2;P2;SDS_P1;SDS_P2;PMS_P1;PMS_P2;Temp;Humidity;BMP_temperature;BMP_pressure;BME280_temperature;BME280_humidity;BME280_pressure;Samples;Min_cycle;Max_cycle;Signal;HPM_P1;HPM_P2
2023/07/13 00:01:18;;;;;;;10.25;2.80;;;;;;;;;;4900633;29;20059;-63
2023/07/13 00:03:44;;;;;;;14.45;3.08;;;;;;;;;;4900080;29;20042;-63
2023/07/13 00:06:11;;;;;;;12.15;2.97;;;;;;;;;;4900837;29;20043;-63
2023/07/13 00:08:37;;;;;;;14.85;4.03;;;;;;;;;;4900374;29;20095;-63
2023/07/13 00:11:04;;;;;;;9.70;2.85;;;;;;;;;;4900949;29;20036;-63
2023/07/13 00:13:30;;;;;;;9.27;2.40;;;;;;;;;;4900874;29;20040;-63
2023/07/13 00:15:58;;;;;;;8.70;2.40;;;;;;;;;;4901052;29;20472;-63
2023/07/13 00:18:24;;;;;;;13.10;2.88;;;;;;;;;;4900983;29;20070;-63
2023/07/13 00:20:51;;;;;;;12.30;2.47;;;;;;;;;;4900750;29;20040;-63
2023/07/13 00:23:17;;;;;;;10.90;2.65;;;;;;;;;;4899910;29;20055;-63
2023/07/13 00:25:43;;;;;;;11.05;3.00;;;;;;;;;;4879820;29;20047;-63
2023/07/13 00:28:09;;;;;;;9.68;2.67;;;;;;;;;;4899312;29;20047;-63
2023/07/13 00:30:35;;;;;;;12.70;2.63;;;;;;;;;;4899484;29;20048;-63
2023/07/13 00:33:01;;;;;;;13.38;3.45;;;;;;;;;;4900741;29;20044;-63
2023/07/13 00:35:27;;;;;;;13.38;3.70;;;;;;;;;;4900790;29;20064;-63
2023/07/13 00:37:53;;;;;;;9.75;2.35;;;;;;;;;;4900707;29;20123;-63
2023/07/13 00:40:19;;;;;;;11.65;3.38;;;;;;;;;;4900362;29;20095;-63
2023/07/13 00:42:45;;;;;;;10.60;2.65;;;;;;;;;;4900512;29;20048;-63
2023/07/13 00:45:11;;;;;;;10.52;2.72;;;;;;;;;;4900464;29;20043;-63
2023/07/13 00:47:38;;;;;;;15.05;3.47;;;;;;;;;;4900014;29;20071;-63
2023/07/13 00:50:05;;;;;;;16.50;3.08;;;;;;;;;;4900160;29;20151;-63
2023/07/13 00:52:31;;;;;;;11.13;3.13;;;;;;;;;;4900031;29;20042;-63
2023/07/13 00:54:58;;;;;;;15.35;4.10;;;;;;;;;;4900522;29;20032;-63
2023/07/13 00:57:24;;;;;;;12.93;3.13;;;;;;;;;;4901265;29;20040;-63
2023/07/13 00:59:52;;;;;;;13.40;3.13;;;;;;;;;;4900099;29;20036;-63
2023/07/13 01:02:18;;;;;;;12.40;2.83;;;;;;;;;;4900224;29;20813;-63
2023/07/13 01:04:44;;;;;;;10.18;2.97;;;;;;;;;;4899782;29;20027;-62
2023/07/13 01:07:11;;;;;;;11.85;2.80;;;;;;;;;;4900280;29;20039;-63
2023/07/13 01:09:37;;;;;;;11.95;2.80;;;;;;;;;;4899614;29;20090;-63
2023/07/13 01:12:04;;;;;;;12.38;2.83;;;;;;;;;;4900648;29;20099;-63
2023/07/13 01:14:30;;;;;;;15.63;3.65;;;;;;;;;;4899995;29;20045;-63
2023/07/13 01:16:59;;;;;;;8.73;2.67;;;;;;;;;;4899992;29;20039;-62
2023/07/13 01:19:43;;;;;;;17.05;3.67;;;;;;;;;;4900344;29;20068;-63
2023/07/13 01:22:11;;;;;;;15.32;3.22;;;;;;;;;;4899900;29;20047;-63
2023/07/13 01:24:37;;;;;;;8.32;2.40;;;;;;;;;;4899704;29;20135;-63
2023/07/13 01:27:05;;;;;;;15.52;3.63;;;;;;;;;;4900416;29;20500;-63
2023/07/13 01:29:32;;;;;;;9.63;2.58;;;;;;;;;;4900268;29;20043;-63
2023/07/13 01:31:59;;;;;;;18.15;4.22;;;;;;;;;;4900523;29;20060;-62
2023/07/13 01:34:26;;;;;;;13.18;3.20;;;;;;;;;;4899733;29;20033;-62
2023/07/13 01:36:53;;;;;;;10.13;3.10;;;;;;;;;;4900563;29;20138;-63
2023/07/13 01:39:19;;;;;;;9.60;2.60;;;;;;;;;;4900001;29;20032;-63
2023/07/13 01:41:45;;;;;;;11.35;2.38;;;;;;;;;;4902841;29;20047;-63
2023/07/13 01:44:11;;;;;;;6.47;2.22;;;;;;;;;;4903024;29;20046;-63
2023/07/13 01:46:37;;;;;;;12.50;2.75;;;;;;;;;;4902505;29;20047;-63
2023/07/13 01:49:03;;;;;;;10.60;2.10;;;;;;;;;;4902848;29;20036;-63
2023/07/13 01:51:29;;;;;;;7.93;1.83;;;;;;;;;;4903758;29;20111;-63
2023/07/13 01:53:56;;;;;;;8.13;1.50;;;;;;;;;;4904225;29;20145;-62
2023/07/13 01:56:22;;;;;;;6.72;1.38;;;;;;;;;;4903061;29;20047;-63
2023/07/13 01:58:48;;;;;;;5.10;1.50;;;;;;;;;;4903408;29;20036;-63
2023/07/13 02:01:14;;;;;;;6.90;1.52;;;;;;;;;;4902720;29;20039;-63
2023/07/13 02:03:40;;;;;;;4.78;1.38;;;;;;;;;;4902809;29;20036;-63
2023/07/13 02:06:06;;;;;;;5.25;1.17;;;;;;;;;;4903006;29;20076;-63
2023/07/13 02:08:35;;;;;;;7.68;1.30;;;;;;;;;;4903442;29;20032;-63
2023/07/13 02:11:03;;;;;;;4.88;1.17;;;;;;;;;;4902377;29;20078;-63
2023/07/13 02:13:29;;;;;;;5.63;1.30;;;;;;;;;;4902314;29;20028;-63
2023/07/13 02:15:55;;;;;;;11.25;1.83;;;;;;;;;;4901937;29;20150;-63
2023/07/13 02:18:21;;;;;;;5.85;1.42;;;;;;;;;;4902707;29;20044;-63
2023/07/13 02:20:48;;;;;;;6.22;1.80;;;;;;;;;;4902522;29;20114;-63
2023/07/13 02:23:14;;;;;;;6.05;1.40;;;;;;;;;;4902449;29;20950;-63
2023/07/13 02:25:40;;;;;;;7.18;1.30;;;;;;;;;;4902396;29;20039;-63
2023/07/13 02:28:07;;;;;;;3.67;1.10;;;;;;;;;;4902686;29;20155;-63
2023/07/13 02:30:33;;;;;;;6.10;1.10;;;;;;;;;;4900554;29;20039;-63
2023/07/13 02:32:59;;;;;;;4.35;0.82;;;;;;;;;;4902239;29;20053;-62
2023/07/13 02:35:25;;;;;;;4.30;1.17;;;;;;;;;;4901877;29;20039;-63
2023/07/13 02:37:51;;;;;;;6.45;1.45;;;;;;;;;;4902727;29;20032;-63
2023/07/13 02:40:17;;;;;;;6.75;1.20;;;;;;;;;;4902713;29;20054;-63
2023/07/13 02:42:43;;;;;;;4.25;1.10;;;;;;;;;;4903371;29;20042;-62
2023/07/13 02:45:09;;;;;;;6.82;1.40;;;;;;;;;;4884535;29;20067;-63
2023/07/13 02:47:36;;;;;;;6.05;1.55;;;;;;;;;;4902150;29;20040;-62
2023/07/13 02:50:02;;;;;;;4.75;1.65;;;;;;;;;;4902271;29;20032;-62
2023/07/13 02:52:28;;;;;;;8.35;1.67;;;;;;;;;;4901424;29;21699;-63
2023/07/13 02:54:54;;;;;;;6.82;2.00;;;;;;;;;;4901711;29;20771;-63
2023/07/13 02:57:21;;;;;;;12.48;1.80;;;;;;;;;;4902001;29;21052;-63
2023/07/13 02:59:47;;;;;;;10.23;1.92;;;;;;;;;;4902357;29;20480;-63
2023/07/13 03:02:13;;;;;;;7.93;2.47;;;;;;;;;;4902457;29;20527;-63
2023/07/13 03:04:40;;;;;;;7.43;2.22;;;;;;;;;;4901616;29;21308;-63
2023/07/13 03:07:06;;;;;;;12.07;2.83;;;;;;;;;;4903248;29;20028;-62
2023/07/13 03:09:34;;;;;;;9.20;3.08;;;;;;;;;;4902290;29;20070;-63
2023/07/13 03:12:00;;;;;;;12.38;2.85;;;;;;;;;;4902739;29;20043;-63
2023/07/13 03:14:26;;;;;;;7.18;2.38;;;;;;;;;;4901782;29;20519;-63
2023/07/13 03:16:52;;;;;;;9.10;2.90;;;;;;;;;;4902348;29;20146;-62
2023/07/13 03:19:18;;;;;;;6.68;2.15;;;;;;;;;;4902393;29;20035;-63
2023/07/13 03:21:45;;;;;;;10.77;2.85;;;;;;;;;;4902304;29;20164;-63
2023/07/13 03:24:11;;;;;;;10.75;2.90;;;;;;;;;;4901539;29;21070;-63
2023/07/13 03:26:37;;;;;;;7.80;2.78;;;;;;;;;;4902154;29;20038;-63
2023/07/13 03:29:03;;;;;;;11.77;3.40;;;;;;;;;;4902492;29;20036;-62
2023/07/13 03:31:30;;;;;;;13.32;3.65;;;;;;;;;;4901336;29;20052;-63
2023/07/13 03:33:57;;;;;;;11.18;3.05;;;;;;;;;;4885611;29;20031;-63
2023/07/13 03:36:24;;;;;;;10.18;2.95;;;;;;;;;;4901692;29;20043;-63
2023/07/13 03:38:52;;;;;;;12.07;3.47;;;;;;;;;;4907586;29;20043;-63
2023/07/13 03:41:18;;;;;;;16.02;3.42;;;;;;;;;;4908635;29;20080;-63
2023/07/13 03:43:44;;;;;;;12.70;3.55;;;;;;;;;;4907940;29;20070;-63
2023/07/13 03:46:10;;;;;;;14.57;3.28;;;;;;;;;;4906784;29;20036;-63
2023/07/13 03:48:36;;;;;;;11.32;3.60;;;;;;;;;;4907499;29;20227;-62
2023/07/13 03:51:03;;;;;;;15.35;3.25;;;;;;;;;;4907547;29;20500;-63
2023/07/13 03:53:29;;;;;;;17.90;3.78;;;;;;;;;;4907939;29;20043;-63
2023/07/13 03:55:55;;;;;;;13.40;3.65;;;;;;;;;;4907456;29;20032;-63
2023/07/13 03:58:26;;;;;;;16.80;3.67;;;;;;;;;;4906900;29;20200;-63
2023/07/13 04:00:52;;;;;;;13.10;3.65;;;;;;;;;;4906860;29;21016;-63
2023/07/13 04:03:18;;;;;;;10.95;2.60;;;;;;;;;;4905860;29;20040;-63
2023/07/13 04:05:44;;;;;;;8.93;2.85;;;;;;;;;;4905735;29;20051;-63
2023/07/13 04:08:11;;;;;;;10.00;2.78;;;;;;;;;;4907405;29;20515;-63
2023/07/13 04:10:37;;;;;;;13.40;3.78;;;;;;;;;;4907394;29;20051;-62
2023/07/13 04:13:03;;;;;;;11.25;3.05;;;;;;;;;;4907128;29;20036;-63
2023/07/13 04:15:31;;;;;;;10.50;3.22;;;;;;;;;;4907251;29;20033;-63
2023/07/13 04:17:57;;;;;;;11.35;3.20;;;;;;;;;;4906231;29;20040;-63
2023/07/13 04:20:24;;;;;;;9.60;2.75;;;;;;;;;;4906268;29;20079;-63
2023/07/13 04:22:50;;;;;;;9.30;2.40;;;;;;;;;;4906021;29;20122;-62
2023/07/13 04:25:16;;;;;;;12.93;2.95;;;;;;;;;;4906537;29;20522;-62
2023/07/13 04:27:42;;;;;;;12.90;2.97;;;;;;;;;;4906768;29;21136;-63
2023/07/13 04:30:08;;;;;;;13.48;3.00;;;;;;;;;;4905792;29;20485;-63
2023/07/13 04:32:34;;;;;;;11.88;3.45;;;;;;;;;;4906010;29;20050;-63
2023/07/13 04:35:00;;;;;;;14.20;2.80;;;;;;;;;;4906864;29;20119;-63
2023/07/13 04:37:27;;;;;;;12.18;3.00;;;;;;;;;;4906896;29;20031;-63
2023/07/13 04:39:53;;;;;;;10.98;3.50;;;;;;;;;;4890487;29;20047;-63
2023/07/13 04:42:19;;;;;;;8.85;2.78;;;;;;;;;;4906497;29;20047;-63
2023/07/13 04:44:51;;;;;;;13.45;3.63;;;;;;;;;;4906368;29;20032;-63
2023/07/13 04:47:18;;;;;;;12.73;2.88;;;;;;;;;;4907638;29;20040;-63
2023/07/13 04:49:45;;;;;;;12.60;3.10;;;;;;;;;;4906246;29;20123;-63
2023/07/13 04:52:11;;;;;;;12.95;2.85;;;;;;;;;;4906771;29;20028;-63
2023/07/13 04:54:38;;;;;;;11.90;3.35;;;;;;;;;;4906852;29;20046;-63
2023/07/13 04:57:06;;;;;;;11.57;2.90;;;;;;;;;;4907355;29;20021;-63
2023/07/13 04:59:32;;;;;;;12.07;3.15;;;;;;;;;;4906926;29;20040;-63
2023/07/13 05:01:58;;;;;;;14.88;3.38;;;;;;;;;;4906884;29;20119;-63
2023/07/13 05:04:24;;;;;;;8.35;2.30;;;;;;;;;;4906948;29;20155;-63
2023/07/13 05:06:51;;;;;;;8.30;2.58;;;;;;;;;;4906965;29;20051;-63
2023/07/13 05:09:17;;;;;;;10.13;2.47;;;;;;;;;;4906094;29;20586;-63
2023/07/13 05:11:43;;;;;;;7.68;2.78;;;;;;;;;;4906162;29;20467;-63
2023/07/13 05:14:09;;;;;;;9.13;2.53;;;;;;;;;;4906150;29;20032;-63
2023/07/13 05:16:35;;;;;;;10.25;2.90;;;;;;;;;;4909538;29;20036;-63
2023/07/13 05:19:02;;;;;;;11.77;3.03;;;;;;;;;;4910530;29;20042;-63
2023/07/13 05:21:28;;;;;;;12.93;2.63;;;;;;;;;;4909470;29;20044;-63
2023/07/13 05:23:54;;;;;;;9.63;2.95;;;;;;;;;;4909558;29;20039;-63
2023/07/13 05:26:20;;;;;;;10.63;2.70;;;;;;;;;;4910373;29;20051;-63
2023/07/13 05:28:47;;;;;;;11.40;3.17;;;;;;;;;;4910338;29;20752;-63
2023/07/13 05:31:13;;;;;;;10.38;2.55;;;;;;;;;;4909565;29;20052;-63
2023/07/13 05:33:40;;;;;;;11.88;3.03;;;;;;;;;;4910070;29;20574;-63
2023/07/13 05:36:07;;;;;;;12.10;3.10;;;;;;;;;;4899186;29;20036;-63
2023/07/13 05:38:33;;;;;;;9.95;2.45;;;;;;;;;;4908964;29;20031;-63
2023/07/13 05:40:59;;;;;;;10.85;3.58;;;;;;;;;;4909279;29;20042;-63
2023/07/13 05:43:25;;;;;;;10.60;2.83;;;;;;;;;;4909160;29;20043;-63
2023/07/13 05:45:53;;;;;;;9.75;3.28;;;;;;;;;;4910325;29;20898;-63
2023/07/13 05:48:19;;;;;;;12.80;2.85;;;;;;;;;;4909846;29;20059;-63
2023/07/13 05:50:45;;;;;;;12.73;2.63;;;;;;;;;;4910004;29;20165;-63
2023/07/13 05:53:12;;;;;;;10.65;2.88;;;;;;;;;;4908938;29;20039;-63
2023/07/13 05:55:42;;;;;;;8.50;2.53;;;;;;;;;;4909773;29;20040;-63
2023/07/13 05:58:08;;;;;;;10.45;3.25;;;;;;;;;;4909746;29;20029;-63
2023/07/13 06:00:34;;;;;;;8.73;3.08;;;;;;;;;;4909682;29;20226;-63
2023/07/13 06:03:00;;;;;;;9.73;2.30;;;;;;;;;;4909306;29;20075;-63
2023/07/13 06:05:28;;;;;;;10.98;2.08;;;;;;;;;;4909808;29;20043;-63
2023/07/13 06:07:54;;;;;;;8.98;2.33;;;;;;;;;;4909054;29;20036;-63
2023/07/13 06:10:20;;;;;;;11.40;3.25;;;;;;;;;;4909449;29;20047;-63
2023/07/13 06:12:47;;;;;;;13.20;2.53;;;;;;;;;;4908748;29;20036;-63
2023/07/13 06:15:13;;;;;;;8.45;2.40;;;;;;;;;;4909127;29;20039;-63
2023/07/13 06:17:39;;;;;;;8.55;2.38;;;;;;;;;;4909410;29;20226;-63
2023/07/13 06:20:05;;;;;;;8.43;2.30;;;;;;;;;;4909057;29;20079;-63
2023/07/13 06:22:31;;;;;;;8.13;2.28;;;;;;;;;;4896725;29;20040;-63
2023/07/13 06:24:57;;;;;;;9.45;2.28;;;;;;;;;;4900227;29;20075;-63
2023/07/13 06:27:23;;;;;;;9.02;2.42;;;;;;;;;;4899577;29;20040;-63
2023/07/13 06:29:49;;;;;;;6.95;1.98;;;;;;;;;;4901114;29;20044;-63
2023/07/13 06:32:15;;;;;;;8.57;2.05;;;;;;;;;;4901899;29;20103;-63
2023/07/13 06:34:41;;;;;;;9.93;2.30;;;;;;;;;;4900983;29;20038;-63
2023/07/13 06:37:09;;;;;;;8.00;2.53;;;;;;;;;;4900976;29;20135;-63
2023/07/13 06:39:35;;;;;;;9.82;2.47;;;;;;;;;;4901953;29;20043;-63
2023/07/13 06:42:01;;;;;;;7.15;2.03;;;;;;;;;;4900561;29;20040;-63
2023/07/13 06:44:27;;;;;;;10.07;2.03;;;;;;;;;;4889031;29;20381;-63
2023/07/13 06:46:53;;;;;;;8.27;1.70;;;;;;;;;;4901865;29;20753;-63
2023/07/13 06:49:20;;;;;;;6.63;1.88;;;;;;;;;;4901998;29;20404;-63
2023/07/13 06:51:46;;;;;;;12.98;2.78;;;;;;;;;;4900356;29;20036;-63
2023/07/13 06:54:12;;;;;;;7.93;1.75;;;;;;;;;;4901561;29;20032;-63
2023/07/13 06:56:38;;;;;;;6.60;1.98;;;;;;;;;;4902241;29;20047;-63
2023/07/13 06:59:05;;;;;;;7.35;1.73;;;;;;;;;;4901595;29;20028;-63
2023/07/13 07:01:31;;;;;;;8.68;1.95;;;;;;;;;;4901472;29;20472;-63
2023/07/13 07:03:57;;;;;;;8.15;2.08;;;;;;;;;;4902169;29;20786;-63
2023/07/13 07:06:23;;;;;;;8.60;2.72;;;;;;;;;;4901093;29;20039;-63
2023/07/13 07:08:50;;;;;;;10.07;2.47;;;;;;;;;;4898831;29;20734;-63
2023/07/13 07:11:22;;;;;;;11.65;2.10;;;;;;;;;;4898728;29;20075;-63
2023/07/13 07:13:49;;;;;;;5.33;1.90;;;;;;;;;;4900362;29;20032;-63
2023/07/13 07:16:15;;;;;;;7.13;1.55;;;;;;;;;;4900839;29;20036;-63
2023/07/13 07:18:41;;;;;;;7.25;1.80;;;;;;;;;;4900448;29;20079;-63
2023/07/13 07:21:07;;;;;;;4.57;1.38;;;;;;;;;;4900492;29;20028;-63
2023/07/13 07:23:33;;;;;;;4.78;1.60;;;;;;;;;;4900504;29;20039;-63
2023/07/13 07:25:59;;;;;;;4.05;1.20;;;;;;;;;;4899737;29;20043;-63
2023/07/13 07:28:28;;;;;;;5.40;1.50;;;;;;;;;;4899388;29;20036;-63
2023/07/13 07:30:54;;;;;;;6.25;1.65;;;;;;;;;;4900103;29;20036;-63
2023/07/13 07:33:20;;;;;;;6.53;1.55;;;;;;;;;;4900611;29;20122;-63
2023/07/13 07:35:47;;;;;;;5.80;1.70;;;;;;;;;;4899332;29;20028;-63
2023/07/13 07:38:13;;;;;;;6.15;1.48;;;;;;;;;;4899507;29;20070;-63
2023/07/13 07:40:40;;;;;;;6.93;1.52;;;;;;;;;;4900708;29;20040;-63
2023/07/13 07:43:06;;;;;;;5.68;1.40;;;;;;;;;;4899251;29;20735;-63
2023/07/13 07:45:32;;;;;;;9.48;2.00;;;;;;;;;;4900034;29;20047;-63
2023/07/13 07:47:59;;;;;;;5.70;1.70;;;;;;;;;;4900035;29;20048;-63
2023/07/13 07:50:28;;;;;;;6.65;1.92;;;;;;;;;;4899002;29;20473;-63
2023/07/13 07:52:55;;;;;;;6.57;1.30;;;;;;;;;;4881875;29;20043;-63
2023/07/13 07:55:22;;;;;;;3.90;1.50;;;;;;;;;;4899809;29;20039;-63
2023/07/13 07:57:48;;;;;;;6.35;1.63;;;;;;;;;;4898707;29;20392;-63
2023/07/13 08:00:14;;;;;;;6.90;1.63;;;;;;;;;;4899974;29;20036;-63
2023/07/13 08:02:41;;;;;;;3.92;1.23;;;;;;;;;;4900283;29;20024;-63
2023/07/13 08:05:08;;;;;;;4.55;1.30;;;;;;;;;;4898804;29;20160;-63
2023/07/13 08:07:34;;;;;;;7.07;1.38;;;;;;;;;;4900078;29;20040;-63
2023/07/13 08:10:00;;;;;;;3.85;1.40;;;;;;;;;;4898352;29;20102;-63
2023/07/13 08:12:26;;;;;;;4.65;1.13;;;;;;;;;;4899827;29;20110;-63
2023/07/13 08:14:53;;;;;;;5.28;1.40;;;;;;;;;;4899762;29;20070;-63
2023/07/13 08:17:20;;;;;;;4.03;1.20;;;;;;;;;;4899413;29;20036;-63
2023/07/13 08:19:46;;;;;;;8.25;1.55;;;;;;;;;;4899536;29;20047;-63
2023/07/13 08:22:12;;;;;;;6.05;1.58;;;;;;;;;;4898419;29;20121;-63
2023/07/13 08:24:38;;;;;;;6.82;1.70;;;;;;;;;;4899131;29;20040;-63
2023/07/13 08:27:05;;;;;;;8.20;2.03;;;;;;;;;;4899242;29;20067;-63
2023/07/13 08:29:34;;;;;;;4.32;1.80;;;;;;;;;;4898987;29;21214;-63
2023/07/13 08:32:00;;;;;;;7.28;2.33;;;;;;;;;;4898008;29;20062;-63
2023/07/13 08:34:26;;;;;;;6.07;1.70;;;;;;;;;;4900135;29;20416;-63
2023/07/13 08:36:52;;;;;;;5.80;1.60;;;;;;;;;;4899418;29;20440;-63
2023/07/13 08:39:18;;;;;;;8.13;2.20;;;;;;;;;;4899555;29;20035;-63
2023/07/13 08:41:46;;;;;;;7.57;1.92;;;;;;;;;;4899034;29;20044;-63
2023/07/13 08:44:19;;;;;;;6.70;1.83;;;;;;;;;;4899288;29;21242;-63
2023/07/13 08:46:46;;;;;;;5.43;1.80;;;;;;;;;;4887423;29;20035;-63
2023/07/13 08:49:12;;;;;;;5.70;1.92;;;;;;;;;;4899291;29;20535;-63
2023/07/13 08:51:42;;;;;;;10.02;2.20;;;;;;;;;;4903768;29;20074;-63
2023/07/13 08:54:13;;;;;;;7.53;1.83;;;;;;;;;;4905032;29;20032;-63
2023/07/13 08:56:39;;;;;;;7.78;1.83;;;;;;;;;;4905590;29;21837;-63
2023/07/13 08:59:10;;;;;;;5.10;1.60;;;;;;;;;;4905535;29;20218;-63
2023/07/13 09:01:55;;;;;;;9.05;2.03;;;;;;;;;;4906078;29;20039;-64
2023/07/13 09:04:26;;;;;;;5.47;1.70;;;;;;;;;;4905211;29;20083;-63
2023/07/13 09:06:56;;;;;;;5.88;1.83;;;;;;;;;;4905302;29;20806;-63
2023/07/13 09:09:37;;;;;;;6.78;1.80;;;;;;;;;;4905099;29;20064;-63
2023/07/13 09:12:03;;;;;;;6.35;1.65;;;;;;;;;;4905650;29;20044;-64
2023/07/13 09:14:35;;;;;;;7.47;1.75;;;;;;;;;;4905233;29;20084;-63
2023/07/13 09:17:03;;;;;;;6.38;1.70;;;;;;;;;;4905520;29;20032;-63
2023/07/13 09:19:32;;;;;;;6.93;1.88;;;;;;;;;;4905191;29;20032;-63
2023/07/13 09:21:59;;;;;;;4.82;1.40;;;;;;;;;;4904363;29;20483;-63
2023/07/13 09:24:25;;;;;;;5.82;1.70;;;;;;;;;;4903983;29;20273;-63
2023/07/13 09:26:52;;;;;;;8.13;1.70;;;;;;;;;;4904997;29;20031;-63
2023/07/13 09:29:25;;;;;;;5.93;1.75;;;;;;;;;;4905320;29;20441;-64
2023/07/13 09:31:54;;;;;;;3.67;1.55;;;;;;;;;;4904411;29;20055;-63
2023/07/13 09:34:20;;;;;;;6.85;1.85;;;;;;;;;;4905422;29;20036;-64
2023/07/13 09:36:46;;;;;;;5.88;1.75;;;;;;;;;;4904461;29;20032;-64
2023/07/13 09:39:25;;;;;;;4.07;1.40;;;;;;;;;;4904640;29;20047;-64
2023/07/13 09:42:04;;;;;;;6.53;1.45;;;;;;;;;;4904961;29;20032;-64
2023/07/13 09:44:32;;;;;;;5.80;1.50;;;;;;;;;;4905037;29;20035;-64
2023/07/13 09:46:58;;;;;;;6.03;1.60;;;;;;;;;;4904639;29;20044;-64
2023/07/13 09:49:28;;;;;;;6.78;1.90;;;;;;;;;;4905082;29;20047;-63
2023/07/13 09:52:00;;;;;;;6.60;1.27;;;;;;;;;;4904934;29;20753;-64
2023/07/13 09:54:26;;;;;;;5.28;1.58;;;;;;;;;;4904258;29;20213;-63
2023/07/13 09:56:56;;;;;;;5.95;1.38;;;;;;;;;;4905930;29;20103;-63
2023/07/13 09:59:23;;;;;;;5.15;1.17;;;;;;;;;;4883944;29;20040;-64
2023/07/13 10:01:50;;;;;;;5.57;1.08;;;;;;;;;;4902415;29;20032;-63
2023/07/13 10:04:20;;;;;;;4.20;1.10;;;;;;;;;;4899936;29;20036;-63
2023/07/13 10:06:46;;;;;;;3.83;1.00;;;;;;;;;;4902296;29;20032;-63
2023/07/13 10:09:17;;;;;;;4.25;1.95;;;;;;;;;;4901444;29;20107;-63
2023/07/13 10:11:44;;;;;;;4.50;1.10;;;;;;;;;;4901175;29;20032;-63
2023/07/13 10:14:10;;;;;;;3.20;0.75;;;;;;;;;;4901911;29;20082;-63
2023/07/13 10:16:37;;;;;;;3.05;0.75;;;;;;;;;;4901287;29;20032;-63
2023/07/13 10:19:11;;;;;;;3.85;1.00;;;;;;;;;;4901652;29;20384;-64
2023/07/13 10:21:40;;;;;;;4.22;1.25;;;;;;;;;;4900749;29;20513;-63
2023/07/13 10:24:18;;;;;;;5.90;1.02;;;;;;;;;;4901910;29;20421;-63
2023/07/13 10:26:48;;;;;;;2.85;0.88;;;;;;;;;;4900948;29;20040;-63
2023/07/13 10:29:16;;;;;;;4.55;1.05;;;;;;;;;;4901799;29;20032;-63
2023/07/13 10:31:42;;;;;;;2.85;0.70;;;;;;;;;;4900949;29;20048;-63
2023/07/13 10:34:14;;;;;;;3.58;1.00;;;;;;;;;;4900650;29;20032;-63
2023/07/13 10:36:45;;;;;;;6.50;1.27;;;;;;;;;;4901086;29;20039;-63
2023/07/13 10:39:16;;;;;;;3.72;1.10;;;;;;;;;;4900898;29;20058;-63
2023/07/13 10:41:43;;;;;;;5.40;1.13;;;;;;;;;;4901573;29;20040;-64
2023/07/13 10:44:17;;;;;;;3.38;1.00;;;;;;;;;;4901121;29;20035;-63
2023/07/13 10:46:44;;;;;;;5.93;1.33;;;;;;;;;;4900893;29;20108;-63
2023/07/13 10:49:11;;;;;;;3.28;1.00;;;;;;;;;;4901167;29;20044;-63
2023/07/13 10:51:37;;;;;;;2.97;1.08;;;;;;;;;;4900997;29;20055;-63
2023/07/13 10:54:23;;;;;;;3.53;1.10;;;;;;;;;;4900723;29;20083;-63
2023/07/13 10:56:51;;;;;;;3.53;0.88;;;;;;;;;;4900337;29;20496;-63
2023/07/13 10:59:19;;;;;;;7.18;0.70;;;;;;;;;;4901469;29;20139;-63
2023/07/13 11:01:55;;;;;;;4.63;0.93;;;;;;;;;;4899252;29;20028;-63
2023/07/13 11:04:23;;;;;;;4.03;1.10;;;;;;;;;;4900013;29;20063;-63
2023/07/13 11:06:51;;;;;;;2.80;1.00;;;;;;;;;;4900648;29;20044;-63
2023/07/13 11:09:17;;;;;;;4.10;1.05;;;;;;;;;;4899195;29;20519;-64
2023/07/13 11:11:43;;;;;;;3.38;1.00;;;;;;;;;;4899704;29;20059;-63
2023/07/13 11:14:28;;;;;;;4.57;1.15;;;;;;;;;;4900547;29;20039;-63
2023/07/13 11:16:54;;;;;;;5.95;1.00;;;;;;;;;;4900470;29;20112;-64
2023/07/13 11:19:20;;;;;;;3.55;1.10;;;;;;;;;;4900631;29;20039;-63
2023/07/13 11:22:03;;;;;;;7.10;1.35;;;;;;;;;;4900025;29;20897;-63
2023/07/13 11:24:30;;;;;;;4.40;1.38;;;;;;;;;;4899535;29;22208;-63
2023/07/13 11:26:56;;;;;;;4.47;1.02;;;;;;;;;;4899647;29;20131;-63
2023/07/13 11:29:25;;;;;;;5.50;1.27;;;;;;;;;;4899673;29;20068;-63
2023/07/13 11:31:52;;;;;;;6.28;1.17;;;;;;;;;;4898850;29;20052;-64
2023/07/13 11:34:22;;;;;;;3.78;1.00;;;;;;;;;;4899035;29;20032;-63
2023/07/13 11:36:48;;;;;;;4.72;1.25;;;;;;;;;;4899499;29;20379;-63
2023/07/13 11:39:21;;;;;;;3.70;1.10;;;;;;;;;;4899820;29;20128;-63
2023/07/13 11:41:51;;;;;;;4.05;1.10;;;;;;;;;;4896656;29;20036;-63
2023/07/13 11:44:19;;;;;;;5.70;1.00;;;;;;;;;;4898173;29;20471;-63
2023/07/13 11:46:51;;;;;;;5.30;1.48;;;;;;;;;;4899384;29;20043;-63
2023/07/13 11:49:18;;;;;;;4.57;1.15;;;;;;;;;;4899334;29;20027;-63
2023/07/13 11:51:44;;;;;;;4.53;1.20;;;;;;;;;;4898434;29;20107;-63
2023/07/13 11:54:22;;;;;;;4.45;1.60;;;;;;;;;;4899117;29;20111;-63
2023/07/13 11:56:49;;;;;;;8.43;1.67;;;;;;;;;;4899381;29;20024;-63
2023/07/13 11:59:16;;;;;;;6.38;1.10;;;;;;;;;;4898107;29;20036;-63
2023/07/13 12:01:47;;;;;;;7.53;1.30;;;;;;;;;;4899289;29;20042;-63
2023/07/13 12:04:28;;;;;;;5.25;1.30;;;;;;;;;;4899951;29;20042;-63
2023/07/13 12:07:17;;;;;;;5.30;1.45;;;;;;;;;;4899712;29;20031;-63
2023/07/13 12:09:44;;;;;;;5.18;1.25;;;;;;;;;;4890160;29;20217;-63
2023/07/13 12:12:14;;;;;;;8.05;1.70;;;;;;;;;;4898860;29;20028;-63
2023/07/13 12:14:40;;;;;;;4.93;1.20;;;;;;;;;;4899950;29;20032;-63
2023/07/13 12:17:12;;;;;;;5.32;1.20;;;;;;;;;;4899744;29;20502;-63
2023/07/13 12:19:39;;;;;;;4.85;1.00;;;;;;;;;;4898390;29;20033;-63
2023/07/13 12:22:05;;;;;;;4.78;1.38;;;;;;;;;;4899039;29;20047;-63
2023/07/13 12:24:32;;;;;;;5.00;1.27;;;;;;;;;;4898581;29;20036;-64
2023/07/13 12:27:05;;;;;;;7.97;1.38;;;;;;;;;;4898203;29;20055;-63
2023/07/13 12:29:31;;;;;;;;;;;;;;;;;;4899614;29;20586;-64
2023/07/13 12:31:57;;;;;;;5.25;1.75;;;;;;;;;;4882138;29;19923;-63
2023/07/13 12:34:24;;;;;;;6.40;1.50;;;;;;;;;;4898674;29;20028;-63
2023/07/13 12:36:58;;;;;;;4.55;1.30;;;;;;;;;;4899637;29;20122;-63
2023/07/13 12:39:27;;;;;;;3.25;1.25;;;;;;;;;;4899485;29;20028;-63
2023/07/13 12:41:53;;;;;;;6.03;1.30;;;;;;;;;;4897370;29;20036;-63
2023/07/13 12:44:26;;;;;;;4.20;1.20;;;;;;;;;;4891444;29;20094;-63
2023/07/13 12:47:18;;;;;;;3.22;1.02;;;;;;;;;;4891254;29;20044;-64
2023/07/13 12:49:55;;;;;;;5.03;1.00;;;;;;;;;;4889929;29;20097;-63
2023/07/13 12:52:23;;;;;;;5.68;1.58;;;;;;;;;;4891500;29;20028;-63
2023/07/13 12:54:57;;;;;;;4.53;1.45;;;;;;;;;;4892028;29;20044;-63
2023/07/13 12:57:23;;;;;;;4.28;1.30;;;;;;;;;;4889118;29;20036;-64
2023/07/13 12:59:52;;;;;;;6.40;1.50;;;;;;;;;;4892145;29;20035;-64
2023/07/13 13:02:34;;;;;;;4.10;1.25;;;;;;;;;;4891872;29;20715;-64
2023/07/13 13:05:00;;;;;;;5.43;1.27;;;;;;;;;;4890358;29;20060;-63
2023/07/13 13:07:26;;;;;;;4.47;1.50;;;;;;;;;;4890432;29;20134;-63
2023/07/13 13:09:55;;;;;;;5.95;1.30;;;;;;;;;;4890946;29;20032;-64
2023/07/13 13:12:24;;;;;;;8.48;1.70;;;;;;;;;;4891710;29;21298;-63
2023/07/13 13:14:52;;;;;;;5.05;1.60;;;;;;;;;;4892719;29;20039;-63
2023/07/13 13:17:27;;;;;;;6.75;1.95;;;;;;;;;;4892531;29;20032;-63
2023/07/13 13:19:54;;;;;;;10.90;2.35;;;;;;;;;;4894188;29;20028;-63
2023/07/13 13:22:20;;;;;;;5.53;1.60;;;;;;;;;;4894469;29;20055;-64
2023/07/13 13:24:47;;;;;;;6.20;1.30;;;;;;;;;;4891472;29;20996;-63
2023/07/13 13:27:17;;;;;;;5.65;1.85;;;;;;;;;;4891989;29;20028;-64
2023/07/13 13:29:45;;;;;;;5.07;1.33;;;;;;;;;;4893189;29;20036;-64
2023/07/13 13:32:13;;;;;;;6.25;1.70;;;;;;;;;;4891635;29;20065;-64
2023/07/13 13:34:39;;;;;;;3.72;1.08;;;;;;;;;;4893795;29;20035;-63
2023/07/13 13:37:10;;;;;;;6.07;1.55;;;;;;;;;;4895954;29;21860;-63
2023/07/13 13:39:37;;;;;;;3.25;1.00;;;;;;;;;;4897568;29;20492;-63
2023/07/13 13:42:03;;;;;;;6.57;1.23;;;;;;;;;;4881306;29;20055;-63
2023/07/13 13:44:29;;;;;;;4.53;1.23;;;;;;;;;;4898014;29;20047;-63
2023/07/13 13:46:56;;;;;;;6.15;1.70;;;;;;;;;;4897752;29;20027;-63
2023/07/13 13:49:26;;;;;;;6.60;1.67;;;;;;;;;;4895758;29;20161;-63
2023/07/13 13:51:52;;;;;;;7.30;1.85;;;;;;;;;;4898941;29;20039;-63
2023/07/13 13:54:19;;;;;;;7.82;2.03;;;;;;;;;;4899995;29;20040;-63
2023/07/13 13:56:46;;;;;;;7.13;2.05;;;;;;;;;;4902507;29;20035;-63
2023/07/13 13:59:13;;;;;;;5.18;1.35;;;;;;;;;;4901554;29;20035;-64
2023/07/13 14:01:40;;;;;;;5.68;1.50;;;;;;;;;;4900882;29;20043;-63
2023/07/13 14:04:06;;;;;;;3.85;1.50;;;;;;;;;;4902439;29;20047;-62
2023/07/13 14:06:33;;;;;;;7.30;1.52;;;;;;;;;;4901823;29;20043;-63
2023/07/13 14:09:00;;;;;;;5.50;1.55;;;;;;;;;;4900692;29;20051;-63
2023/07/13 14:11:27;;;;;;;6.80;1.70;;;;;;;;;;4900988;29;20039;-63
2023/07/13 14:13:57;;;;;;;4.78;1.30;;;;;;;;;;4899458;29;20043;-63
2023/07/13 14:16:27;;;;;;;6.55;1.52;;;;;;;;;;4899865;29;20154;-63
2023/07/13 14:18:53;;;;;;;5.20;1.80;;;;;;;;;;4901368;29;20068;-63
2023/07/13 14:21:21;;;;;;;6.43;1.48;;;;;;;;;;4901395;29;20055;-63
2023/07/13 14:23:47;;;;;;;5.18;1.42;;;;;;;;;;4900862;29;20032;-64
2023/07/13 14:26:15;;;;;;;6.10;1.45;;;;;;;;;;4900350;29;20038;-64
2023/07/13 14:28:49;;;;;;;8.15;1.60;;;;;;;;;;4901731;29;20031;-64
2023/07/13 14:31:14;;;;;;;;;;;;;;;;;;4901770;29;20086;-64
2023/07/13 14:33:41;;;;;;;6.57;1.80;;;;;;;;;;4899400;29;20503;-63
2023/07/13 14:36:33;;;;;;;4.43;1.50;;;;;;;;;;4900735;29;20815;-64
2023/07/13 14:39:00;;;;;;;6.07;1.92;;;;;;;;;;4894638;29;20048;-64
2023/07/13 14:41:26;;;;;;;5.47;1.30;;;;;;;;;;4898804;29;20062;-64
2023/07/13 14:43:54;;;;;;;5.85;1.52;;;;;;;;;;4899946;29;20050;-64